Aviation Digital Data Service (ADDS)

Output produced by METARs form (1230 UTC 15 November 2018)
found at http://www.aviationweather.gov/metar/data/
 
FABL 151200Z 31005KT 230V040 CAVOK 36/M03 Q1017 NOSIG
TAF FABL 151000Z 1512/1612 VRB03KT CAVOK 
     BECMG 1512/1514 26010KT 
     BECMG 1521/1523 VRB03KT TX36/1512Z TN16/1603Z
       
FACV 150735Z 26004KT CAVOK 24/M05 Q1019
FACT 151200Z 18010KT 140V210 9999 FEW035 23/16 Q1017 NOSIG
TAF FACT 151000Z 1512/1618 20010KT CAVOK 
     BECMG 1516/1518 14005KT BKN014 
     BECMG 1602/1604 SCT018 
     FM160600 22012KT CAVOK 
     BECMG 1610/1612 BKN014 TX24/1512Z TN15/1604Z
       
FAEL 151200Z 16010KT 9999 SCT018 23/17 Q1015
TAF FAEL 150900Z 1510/1519 26007KT 9999 FEW015 BKN035 
     BECMG 1511/1513 17009KT 9999 SCT030 
     BECMG 1517/1518 22005KT 9999 BKN016 TX24/1512Z TN19/1518Z
       
FAGG 151200Z 19007KT 9999 FEW010 22/15 Q1016
TAF FAGG 151000Z 1512/1612 16010KT CAVOK 
     FM151600 VRB02KT 9999 SCT020 
     PROB40 
     TEMPO 1600/1606 BKN008 
     FM160900 09005KT CAVOK TX24/1512Z TN12/1604Z
       
FAHS 151200Z AUTO 05006KT //// // ////// 31/12 Q1016
TAF FAHS 150900Z 1510/1518 36008KT CAVOK TX34/1513Z TN23/1518Z
       
FAKM 151200Z 28011KT CAVOK 37/M05 Q1017
TAF FAKM 150900Z 1510/1518 24010KT CAVOK TX38/1512Z TN25/1518Z
       
FALW 151200Z 21010KT CAVOK 23/// Q1017
FALA 151200Z 30008KT 250V020 CAVOK 32/08 Q1020 NOSIG
TAF AMD FALA 151035Z 1512/1612 33008KT 9999 FEW035 
     TEMPO 1513/1521 FEW050TCU 
     PROB40 
     TEMPO 1515/1520 18015G25KT 4500 TSRA FEW045CB TX34/1513Z TN18/1603Z
       
FAMM 151200Z 30004KT 9999 FEW040 34/02 Q1019 NOSIG
TAF AMD FAMM 151205Z 1510/1518 VRB03KT CAVOK 
     BECMG 1512/1514 SCT040 
     PROB30 
     TEMPO 1513/1518 -TSRA FEW040CB TX36/1513Z TN26/1518Z
       
FAOB 151200Z 15010KT 9999 FEW025 25/16 Q1016
TAF FAPM 150900Z 1510/1521 10012KT 9999 SCT020 
     PROB30 
     TEMPO 1512/1518 6000 TSRA BKN015 FEW030CB 
     BECMG 1518/1520 17008KT TX30/1512Z TN18/1518Z
       
FAPN 151000Z AUTO 16003KT //// // ////// ///// Q1018
FAPE 151200Z 17008KT 120V200 CAVOK 23/16 Q1015 NOSIG
TAF FAPE 151000Z 1512/1612 16007KT 9999 SCT025 
     BECMG 1516/1518 27004KT 9999 BKN014 
     BECMG 1607/1609 10009KT 9999 SCT020 TX23/1612Z TN14/1604Z
       
FAGM 150900Z VRB04KT CAVOK 30/03 Q1025
TAF FARB 150900Z 1510/1518 04015G25KT CAVOK 
     BECMG 1516/1518 04015KT TX33/1512Z TN22/1518Z
       
FASB 150953Z 15003KT CAVOK 29/M13 Q1020
FAUT 151200Z 16009KT 9999 FEW030 27/16 Q1015
TAF FAUT 150900Z 1510/1518 13007KT 9999 SCT020 
     BECMG 1516/1518 2500 BR BKN004 TX24/1512Z TN16/1518Z
       
FAUP 151200Z 22003KT CAVOK 36/M06 Q1016 NOSIG
TAF FAUP 151000Z 1512/1612 19008KT CAVOK TX39/1512Z TN18/1603Z
       
TAF FAWK 150600Z 1507/1518 35005KT CAVOK 
     BECMG 1512/1514 SCT045 
     PROB30 
     TEMPO 1513/1518 -TSRA FEW040CB TX33/1513Z TN25/1518Z
       
FAWB 151100Z 33007KT CAVOK 33/10 Q1019
TAF FAWB 150900Z 1510/1518 35005KT CAVOK 
     BECMG 1512/1516 SCT045 
     PROB30 
     TEMPO 1513/1518 -TSRA FEW040CB TX35/1513Z TN26/1518Z